Tiempo atmosférico en la estación meteorológica de Garganta De La Olla, Cáceres (690 m.)



Fecha
DESCASC
Temp. máxima en grados centígrados (hora)
DESCASC
Temp. mínima en grados centígrados (hora)
DESCASC
Temp. media en grados centígrados
DESCASC
Racha de viento máxima en m/sg (hora)
DESCASC
Velocidad máxima media en intervalos de 10 minutos(hora)
DESCASC
Precipitaciones diarias en mm
DESCASC
Precipitaciones de 00:00 a 06:00 en mm
DESCASC
Precipitaciones de 06:00 a 12:00 en mm
DESCASC
Precipitaciones de 12:00 a 18:00 en mm
DESCASC
Precipitaciones de 18:00 a 24:00 en mm
DESCASC

Gráficas

Temp. máximas Temp. mínimas Temp. medias Precipitaciones Rachas de viento máximas Velocidades máximas media en intervalos de 10 minutos

Datos horarios

Fecha y hora oficial Temperatura (ºC) Velocidad del viento (km/h) Dirección del viento Racha (km/h) Dirección de racha Precipitación (mm) Presión (hPa) Tendencia (hPa) Humedad (%)
2019-04-17 23:00:00 9.2 9 Sudeste 23 Sudeste 1.6 -- -- 95
2019-04-17 22:00:00 9.6 2 Sur 8 Sur 1.2 -- -- 94
2019-04-17 21:00:00 10.5 7 Oeste 39 Oeste 1 -- -- 84
2019-04-17 20:00:00 11.8 16 Oeste 32 Sur 0.6 -- -- 83
2019-04-17 19:00:00 15.3 17 Sur 40 Sudeste 0.2 -- -- 67
2019-04-17 18:00:00 16.4 18 Sudeste 34 Sudeste 0 -- -- 56
2019-04-17 17:00:00 16.9 11 Sudeste 26 Sur 0 -- -- 54
2019-04-17 16:00:00 17.2 14 Sur 31 Sur 0 -- -- 56
2019-04-17 15:00:00 16.3 14 Sur 32 Sur 0 -- -- 59
2019-04-17 14:00:00 15.4 14 Sudeste 28 Sudeste 0 -- -- 64
2019-04-17 13:00:00 15.2 13 Sur 25 Sur 0 -- -- 65
2019-04-17 12:00:00 15.1 13 Sur 28 Sudeste 0 -- -- 64
2019-04-17 11:00:00 15 19 Sur 33 Sur 0 -- -- 61
2019-04-17 10:00:00 12.9 14 Sur 22 Sur 0 -- -- 71
2019-04-17 09:00:00 11.9 11 Sudoeste 22 Sudoeste 0 -- -- 72
2019-04-17 08:00:00 11.5 10 Sudoeste 24 Sudoeste 0 -- -- 70
2019-04-17 07:00:00 12.2 13 Sudoeste 21 Sur 0 -- -- 61
2019-04-17 06:00:00 12.7 9 Sudoeste 17 Sudoeste 0 -- -- 54
2019-04-17 05:00:00 13.2 10 Sudoeste 20 Oeste 0 -- -- 55
2019-04-17 04:00:00 13.1 9 Sur 15 Sudoeste -- -- -- 55
2019-04-17 03:00:00 13.8 9 Sudoeste 14 Sudoeste 0 -- -- 52
2019-04-17 02:00:00 13.6 8 Sudoeste 17 Sur 0 -- -- 54
2019-04-17 01:00:00 13.8 2 Oeste 25 Sur 0 -- -- 55
2019-04-17 00:00:00 16.3 7 Sur 19 Sur 0 -- -- 45
2019-04-16 23:00:00 16.7 9 Sur 17 Sudeste 0 -- -- 43
2019-04-16 22:00:00 15.7 3 Sudeste 16 Sudeste 0 -- -- 45
2019-04-16 21:00:00 16.6 6 Sudeste 17 Sur 0 -- -- 44
2019-04-16 20:00:00 17.6 9 Sudeste 27 Sudeste 0 -- -- 42
2019-04-16 19:00:00 18.2 12 Sudeste 28 Sudeste 0 -- -- 38
2019-04-16 18:00:00 18.5 10 Sudeste 29 Sudeste 0 -- -- 39
2019-04-16 17:00:00 18.9 15 Sudeste 28 Sudeste 0 -- -- 35
2019-04-16 16:00:00 18.4 15 Sudeste 29 Sudeste 0 -- -- 38
2019-04-16 15:00:00 17.9 13 Sur 31 Sur 0 -- -- 42
2019-04-16 14:00:00 16.9 12 Sudeste 28 Sudeste 0 -- -- 44
2019-04-16 13:00:00 15.7 9 Sudeste 23 Sudeste 0 -- -- 57
2019-04-16 12:00:00 14.9 7 Sur 18 Sudeste 0 -- -- 64
2019-04-16 11:00:00 14.2 10 Sur 17 Sudeste 0 -- -- 68
2019-04-16 10:00:00 13.5 5 Sudeste 9 Sudeste 0 -- -- 64
2019-04-16 09:00:00 10.4 2 Noroeste 9 Sur 0 -- -- 75
2019-04-16 08:00:00 7.1 0 Calma 9 Sudoeste 0 -- -- 83
2019-04-16 07:00:00 7.9 3 Sur 10 Noroeste 0 -- -- 79
2019-04-16 06:00:00 8.4 3 Noroeste 14 Noroeste 0 -- -- 76
2019-04-16 05:00:00 8.6 5 Noroeste 13 Noroeste 0 -- -- 72
2019-04-16 04:00:00 8.9 12 Noroeste 18 Noroeste 0 -- -- 67
2019-04-16 03:00:00 9.1 5 Noroeste 15 Noroeste 0 -- -- 66
2019-04-16 02:00:00 10.3 6 Norte 31 Noroeste 0 -- -- 67
2019-04-16 01:00:00 11.3 22 Noroeste 33 Noroeste 0 -- -- 68
2019-04-16 00:00:00 11.6 20 Norte 38 Norte 0 -- -- 71
2019-04-15 23:00:00 11.1 9 Noroeste 19 Noroeste 0 -- -- 80
2019-04-15 22:00:00 11.5 2 Sudeste 16 Noroeste 0 -- -- 81
2019-04-15 21:00:00 11.8 5 Norte 24 Norte 0 -- -- 80
2019-04-15 20:00:00 12.4 10 Norte 30 Noroeste 0 -- -- 77
2019-04-15 19:00:00 13.5 11 Norte 28 Norte 0 -- -- 72
2019-04-15 18:00:00 11.5 15 Noroeste 51 Noroeste 0.2 -- -- 80
2019-04-15 17:00:00 15 31 Noroeste 54 Noroeste 0 -- -- 63
2019-04-15 16:00:00 19.8 9 Noroeste 26 Noroeste 0 -- -- 43
2019-04-15 15:00:00 19.7 6 Oeste 27 Sur 0 -- -- 50
2019-04-15 14:00:00 19.2 8 Sur 26 Sur 0 -- -- 53
2019-04-15 13:00:00 18.3 13 Sudeste 24 Sudeste 0 -- -- 70
2019-04-15 12:00:00 16.4 9 Sudeste 19 Sudeste 0 -- -- 75
2019-04-15 11:00:00 15.2 6 Sudoeste 10 Sudoeste 0 -- -- 77
2019-04-15 10:00:00 15.2 3 Sudoeste 11 Sur 0 -- -- 78
2019-04-15 09:00:00 14.8 4 Sudoeste 16 Sudoeste 0 -- -- 79
2019-04-15 08:00:00 14.7 0 Calma 13 Sudoeste 0 -- -- 80
2019-04-15 07:00:00 14.6 0 Calma 5 Sudoeste 0 -- -- 81
2019-04-15 06:00:00 15.6 2 Oeste 8 Noroeste 0 -- -- 77
2019-04-15 05:00:00 15.3 0 Calma 9 Noroeste 0 -- -- 78
2019-04-15 04:00:00 15.1 2 Noroeste 6 Noroeste 0 -- -- 77
2019-04-15 03:00:00 15.1 6 Noroeste 10 Noroeste 0 -- -- 76
2019-04-15 02:00:00 15.4 4 Noroeste 10 Noroeste 0 -- -- 75
2019-04-15 01:00:00 15.1 2 Noroeste 9 Norte 0 -- -- 75
2019-04-15 00:00:00 15.2 4 Noroeste 9 Noroeste 0 -- -- 73
2019-04-14 23:00:00 16.3 0 Calma 10 Noroeste 0 -- -- 68
2019-04-14 22:00:00 17 6 Norte 16 Noroeste 0 -- -- 65
2019-04-14 21:00:00 17.6 4 Noroeste 19 Noroeste 0 -- -- 61
2019-04-14 20:00:00 19.1 9 Noroeste 24 Noroeste 0 -- -- 56
2019-04-14 19:00:00 21.1 9 Noroeste 24 Oeste 0 -- -- 51
2019-04-14 18:00:00 22.1 10 Noroeste 23 Noroeste 0 -- -- 49
2019-04-14 17:00:00 20.4 4 Sudeste 9 Sudeste 0 -- -- 59
2019-04-14 16:00:00 19 2 Sudeste 13 Este 0 -- -- 67
2019-04-14 15:00:00 18.3 4 Sudeste 20 Sudeste 0 -- -- 71
2019-04-14 14:00:00 18.9 11 Sudeste 23 Sudeste 0 -- -- 68
2019-04-14 13:00:00 17.4 10 Sudeste 21 Sudeste 0 -- -- 69
2019-04-14 12:00:00 16 8 Sudeste 16 Sudeste 0 -- -- 71
2019-04-14 11:00:00 14.5 7 Sudeste 14 Sudeste 0 -- -- 77
2019-04-14 10:00:00 13 5 Sudeste 9 Sudeste 0 -- -- 80
2019-04-14 09:00:00 10.7 2 Sudeste 5 Noroeste 0 -- -- 84
2019-04-14 08:00:00 9 4 Noroeste 7 Sudoeste 0 -- -- 87
2019-04-14 07:00:00 9.7 5 Noroeste 8 Noroeste 0 -- -- 82
2019-04-14 06:00:00 10.4 0 Calma 6 Sudoeste 0 -- -- 71
2019-04-14 05:00:00 12.3 2 Sur 10 Noroeste 0 -- -- 59
2019-04-14 04:00:00 12.7 0 Calma 19 Noroeste 0 -- -- 58
2019-04-14 03:00:00 14.9 12 Noroeste 25 Noroeste 0 -- -- 46
2019-04-14 02:00:00 14.5 18 Noroeste 30 Norte 0 -- -- 52
2019-04-14 01:00:00 14.2 19 Noroeste 35 Noroeste 0 -- -- 67
2019-04-14 00:00:00 14.7 16 Noroeste 28 Noroeste 0 -- -- 57
2019-04-13 23:00:00 15.1 11 Norte 27 Norte 0 -- -- 47
2019-04-13 22:00:00 15.9 11 Noroeste 34 Norte 0 -- -- 43
2019-04-13 21:00:00 16.2 12 Noroeste 25 Noroeste 0 -- -- 45
2019-04-13 20:00:00 18 8 Noroeste 24 Noroeste 0 -- -- 39
2019-04-13 19:00:00 20 12 Noroeste 22 Oeste 0 -- -- 33
2019-04-13 18:00:00 21.2 8 Noroeste 19 Noroeste 0 -- -- 30
2019-04-13 17:00:00 21 7 Oeste 21 Noroeste 0 -- -- 32
2019-04-13 16:00:00 20.4 12 Sur 30 Sudoeste 0 -- -- 42
2019-04-13 15:00:00 18.7 9 Sudeste 22 Sudeste 0 -- -- 43
2019-04-13 14:00:00 18.1 10 Sur 20 Sur 0 -- -- 43
2019-04-13 13:00:00 17.1 10 Sur 17 Sudeste 0 -- -- 44
2019-04-13 12:00:00 16.6 10 Sudeste 17 Sudeste 0 -- -- 45
2019-04-13 11:00:00 15.2 5 Sudeste 12 Sur 0 -- -- 44
2019-04-13 10:00:00 13.9 4 Sudeste 8 Sudeste 0 -- -- 49
2019-04-13 09:00:00 11 0 Calma 6 Norte 0 -- -- 52
2019-04-13 08:00:00 10.7 3 Oeste 8 Noroeste 0 -- -- 43
2019-04-13 07:00:00 10.5 4 Oeste 12 Noroeste 0 -- -- 46
2019-04-13 06:00:00 10.3 0 Calma 7 Oeste 0 -- -- 48
2019-04-13 05:00:00 10.2 3 Noroeste 10 Noroeste 0 -- -- 43
2019-04-13 04:00:00 9.7 6 Noroeste 13 Norte 0 -- -- 46
2019-04-13 03:00:00 10.8 9 Noroeste 18 Norte 0 -- -- 44
2019-04-13 02:00:00 11.6 12 Noroeste 23 Noroeste 0 -- -- 42
2019-04-13 01:00:00 12.9 12 Norte 30 Norte 0 -- -- 39
2019-04-13 00:00:00 13.1 17 Norte 31 Norte 0 -- -- 40
2019-04-12 23:00:00 13.1 14 Norte 22 Noroeste 0 -- -- 44
2019-04-12 22:00:00 12.9 12 Noroeste 22 Noroeste 0 -- -- 44
2019-04-12 21:00:00 14.2 13 Norte 32 Noroeste 0 -- -- 41
2019-04-12 20:00:00 16.1 21 Norte 35 Norte 0 -- -- 37
2019-04-12 19:00:00 18.1 15 Noroeste 25 Noroeste 0 -- -- 34
2019-04-12 18:00:00 18.7 3 Sudoeste 22 Sur 0 -- -- 37
2019-04-12 17:00:00 18.3 9 Sur 26 Sudeste 0 -- -- 40
2019-04-12 16:00:00 18 8 Sur 23 Sur 0 -- -- 42
2019-04-12 15:00:00 17 13 Sudeste 28 Sudeste 0 -- -- 46
2019-04-12 14:00:00 16 10 Sudeste 21 Sudeste 0 -- -- 48
2019-04-12 13:00:00 14.7 11 Sudeste 21 Sudeste 0 -- -- 50
2019-04-12 12:00:00 13.9 10 Sudeste 18 Sudeste 0 -- -- 50
2019-04-12 11:00:00 13.5 9 Sudeste 15 Sudeste 0 -- -- 46
2019-04-12 10:00:00 12.5 4 Sudeste 6 Sudeste 0 -- -- 47
2019-04-12 09:00:00 10 0 Calma 12 Noroeste 0 -- -- 48
2019-04-12 08:00:00 6.6 9 Noroeste 14 Noroeste 0 -- -- 59
2019-04-12 07:00:00 6.5 8 Noroeste 12 Noroeste 0 -- -- 59
2019-04-12 06:00:00 7.1 0 Calma 12 Noroeste 0 -- -- 57
2019-04-12 05:00:00 7.1 4 Noroeste 10 Noroeste 0 -- -- 57
2019-04-12 04:00:00 7.3 5 Noroeste 10 Noroeste 0 -- -- 56
2019-04-12 03:00:00 7.7 7 Noroeste 9 Noroeste 0 -- -- 57
2019-04-12 02:00:00 9.2 2 Noroeste 21 Norte 0 -- -- 49
2019-04-12 01:00:00 10.4 13 Norte 22 Norte 0 -- -- 46
2019-04-12 00:00:00 11 14 Norte 26 Norte 0 -- -- 43
2019-04-11 23:00:00 11.4 15 Norte 28 Norte 0 -- -- 42
2019-04-11 22:00:00 11.7 18 Norte 28 Norte 0 -- -- 43
2019-04-11 21:00:00 12.2 18 Norte 35 Norte 0 -- -- 42
2019-04-11 20:00:00 13.3 15 Norte 29 Nordeste 0 -- -- 39
2019-04-11 19:00:00 15.4 14 Norte 26 Norte 0 -- -- 37
2019-04-11 18:00:00 16.4 11 Sudeste 18 Este 0 -- -- 43
2019-04-11 17:00:00 15.3 5 Sur 19 Sudeste 0 -- -- 47
2019-04-11 16:00:00 14.1 5 Sur 21 Sudeste 0 -- -- 56
2019-04-11 15:00:00 14.6 7 Sudeste 21 Sudeste 0 -- -- 54
2019-04-11 14:00:00 15.2 9 Sudeste 27 Sudeste 0 -- -- 52
2019-04-11 13:00:00 14.4 9 Sudeste 23 Sudeste 0 -- -- 53
2019-04-11 12:00:00 13.5 11 Sudeste 21 Sudeste 0 -- -- 55
2019-04-11 11:00:00 12.6 7 Sudeste 14 Sudeste 0 -- -- 55
2019-04-11 10:00:00 11.5 4 Sudeste 7 Sudeste 0 -- -- 55
2019-04-11 09:00:00 9 2 Sur 10 Noroeste 0 -- -- 62
2019-04-11 08:00:00 6.2 3 Sudoeste 5 Noroeste 0 -- -- 63
2019-04-11 07:00:00 6.8 0 Calma 9 Noroeste 0 -- -- 59
2019-04-11 06:00:00 8 3 Noroeste 15 Noroeste 0 -- -- 55
2019-04-11 05:00:00 7.8 8 Noroeste 15 Norte 0 -- -- 61
2019-04-11 04:00:00 7.3 9 Norte 20 Norte 0 -- -- 64
2019-04-11 03:00:00 6.8 9 Noroeste 14 Noroeste 0 -- -- 67
2019-04-11 02:00:00 8.5 2 Oeste 30 Norte 0 -- -- 58
2019-04-11 01:00:00 8.9 17 Noroeste 34 Noroeste 0 -- -- 61
2019-04-11 00:00:00 8.3 11 Noroeste 23 Noroeste 0 -- -- 65
2019-04-10 23:00:00 8 13 Noroeste 27 Noroeste 0 -- -- 69
2019-04-10 22:00:00 9.1 6 Este 66 Norte 0 -- -- 62
2019-04-10 21:00:00 8.4 27 Norte 57 Nordeste 0 -- -- 68
2019-04-10 20:00:00 9.4 19 Norte 51 Norte 0.2 -- -- 64
2019-04-10 19:00:00 13.2 15 Norte 31 Norte 0 -- -- 49
2019-04-10 18:00:00 12.9 12 Noroeste 29 Noroeste 0 -- -- 49
2019-04-10 17:00:00 12 9 Noroeste 30 Noroeste 0 -- -- 54
2019-04-10 16:00:00 11.4 11 Noroeste 26 Noroeste 0 -- -- 59
2019-04-10 15:00:00 12 11 Noroeste 23 Nordeste 0 -- -- 58
2019-04-10 14:00:00 12.2 10 Nordeste 33 Nordeste 0 -- -- 62
2019-04-10 13:00:00 12.6 18 Norte 44 Norte 0 -- -- 57
2019-04-10 12:00:00 11.6 27 Norte 48 Norte 0 -- -- 60
2019-04-10 11:00:00 10.1 28 Norte 48 Noroeste 0 -- -- 64
2019-04-10 10:00:00 9.2 23 Norte 45 Norte 0 -- -- 70
2019-04-10 09:00:00 7.7 25 Norte 37 Norte 0 -- -- 74
2019-04-10 08:00:00 6.4 15 Norte 24 Noroeste 0 -- -- 81
2019-04-10 07:00:00 6.8 13 Noroeste 30 Noroeste 0 -- -- 73
2019-04-10 06:00:00 6.8 16 Norte 32 Noroeste 0 -- -- 72
2019-04-10 05:00:00 7.3 18 Norte 29 Noroeste 0 -- -- 70
2019-04-10 04:00:00 7.2 15 Noroeste 37 Noroeste 0 -- -- 67
2019-04-10 03:00:00 7.3 24 Norte 36 Norte 0 -- -- 74
2019-04-10 02:00:00 7.5 19 Norte 38 Norte 0 -- -- 75
2019-04-10 01:00:00 7.4 23 Norte 38 Noroeste 0 -- -- 79
2019-04-10 00:00:00 7.9 19 Norte 35 Norte 0 -- -- 79
2019-04-09 23:00:00 8.2 20 Norte 36 Norte 0 -- -- 78
2019-04-09 22:00:00 8.1 6 Norte 27 Noroeste 0 -- -- 77
2019-04-09 21:00:00 8.6 5 Norte 34 Oeste 0 -- -- 77
2019-04-09 20:00:00 9.2 8 Noroeste 25 Oeste 0.2 -- -- 76
2019-04-09 19:00:00 10.6 10 Noroeste 21 Sudeste 0 -- -- 72
2019-04-09 18:00:00 9.3 13 Norte 36 Noroeste 1.6 -- -- 80
2019-04-09 17:00:00 11.3 7 Noroeste 31 Noroeste 0.6 -- -- 73
2019-04-09 16:00:00 9.5 15 Norte 35 Noroeste 0 -- -- 71
2019-04-09 15:00:00 12.6 8 Noroeste 37 Noroeste 0 -- -- 61
2019-04-09 14:00:00 11.1 19 Norte 36 Noroeste 0 -- -- 68
2019-04-09 13:00:00 9.4 17 Norte 38 Norte 0.6 -- -- 87
2019-04-09 12:00:00 6.6 14 Norte 32 Noroeste 3.4 -- -- 91
2019-04-09 11:00:00 7.5 13 Oeste 28 Noroeste 0.2 -- -- 89
2019-04-09 10:00:00 7.1 7 Oeste 30 Noroeste 0.4 -- -- 91
2019-04-09 09:00:00 6.3 6 Noroeste 20 Noroeste 0 -- -- 88
2019-04-09 08:00:00 5.3 3 Noroeste 36 Noroeste 3.8 -- -- 90
2019-04-09 07:00:00 7 8 Oeste 25 Oeste 0.2 -- -- 87
2019-04-09 06:00:00 7.1 7 Noroeste 30 Noroeste 0 -- -- 81
2019-04-09 05:00:00 7.2 10 Noroeste 31 Norte 0 -- -- 80
2019-04-09 04:00:00 6.9 13 Noroeste 29 Noroeste 0 -- -- 82
2019-04-09 03:00:00 7.1 12 Noroeste 32 Noroeste 0 -- -- 82
2019-04-09 02:00:00 7.3 9 Noroeste 35 Norte 0 -- -- 81
2019-04-09 01:00:00 7.6 19 Noroeste 36 Noroeste 0 -- -- 80
2019-04-09 00:00:00 8 17 Noroeste 34 Noroeste 0 -- -- 80
2019-04-08 23:00:00 7.9 12 Norte 28 Noroeste 0 -- -- 81
2019-04-08 22:00:00 8.4 11 Norte 31 Noroeste 0 -- -- 81
2019-04-08 21:00:00 8.6 13 Noroeste 39 Noroeste 0 -- -- 78
2019-04-08 20:00:00 8.8 9 Norte 35 Noroeste 0.2 -- -- 80
2019-04-08 19:00:00 11 16 Noroeste 38 Noroeste 0 -- -- 70
2019-04-08 18:00:00 13.2 9 Noroeste 30 Oeste 0 -- -- 52
2019-04-08 17:00:00 13.8 12 Noroeste 28 Norte 0 -- -- 48
2019-04-08 16:00:00 14.2 11 Noroeste 22 Noroeste 0 -- -- 52
2019-04-08 15:00:00 14.8 6 Norte 21 Norte 0 -- -- 54
2019-04-08 14:00:00 13 9 Noroeste 19 Noroeste 0 -- -- 56
2019-04-08 13:00:00 11.7 5 Oeste 22 Norte 0 -- -- 62
2019-04-08 12:00:00 10.4 6 Noroeste 31 Noroeste 0 -- -- 73
2019-04-08 11:00:00 10 4 Nordeste 18 Oeste 0 -- -- 74
2019-04-08 10:00:00 8.8 5 Norte 19 Noroeste 0 -- -- 83
2019-04-08 09:00:00 9 6 Norte 31 Noroeste 0 -- -- 87
2019-04-08 08:00:00 8.5 6 Noroeste 22 Noroeste 0 -- -- 91
2019-04-08 07:00:00 8.9 4 Noroeste 19 Sudoeste 1.2 -- -- 92
2019-04-08 06:00:00 8.2 0 Calma 4 Noroeste 6.2 -- -- 100
2019-04-08 05:00:00 7.9 0 Calma 4 Sudeste 5.8 -- -- 100
2019-04-08 04:00:00 8.2 3 Sur 19 Oeste 2.2 -- -- 99
2019-04-08 03:00:00 7.9 0 Calma 9 Sur 2 -- -- 100
2019-04-08 02:00:00 7.7 0 Calma 5 Sudoeste 0.4 -- -- 100
2019-04-08 01:00:00 7.5 0 Calma 7 Sur 0.2 -- -- 100
2019-04-08 00:00:00 7.6 2 Sudeste 10 Sur 0 -- -- 100
2019-04-07 23:00:00 7.7 3 Sur 6 Sur 0 -- -- 99
2019-04-07 22:00:00 7.7 0 Calma 2 Oeste 1.4 -- -- 99
2019-04-07 21:00:00 7.6 0 Calma 4 Sur 2 -- -- 98
2019-04-07 20:00:00 7.8 0 Calma 4 Noroeste 1.2 -- -- 97
2019-04-07 19:00:00 7.8 0 Calma 6 Sudeste 1.2 -- -- 96
2019-04-07 18:00:00 8.4 3 Este 14 Sur 0.6 -- -- 95
2019-04-07 17:00:00 9.5 7 Sur 15 Sur 0 -- -- 77
2019-04-07 16:00:00 9.4 3 Sur 15 Sudoeste 0 -- -- 77
2019-04-07 15:00:00 10.4 8 Noroeste 23 Norte 0 -- -- 69
2019-04-07 14:00:00 11.2 10 Noroeste 24 Norte 0 -- -- 60
2019-04-07 13:00:00 9.6 13 Norte 30 Noroeste 0 -- -- 69
2019-04-07 12:00:00 8.6 12 Norte 32 Norte 0 -- -- 74
2019-04-07 11:00:00 7.3 18 Norte 35 Noroeste 0 -- -- 77
2019-04-07 10:00:00 6.6 18 Norte 32 Norte 0 -- -- 80
2019-04-07 09:00:00 5.4 15 Noroeste 30 Noroeste 0 -- -- 87
2019-04-07 08:00:00 4.5 10 Noroeste 31 Noroeste 0 -- -- 89
2019-04-07 07:00:00 4.6 11 Noroeste 31 Oeste 0.4 -- -- 90
2019-04-07 06:00:00 4.7 10 Noroeste 29 Noroeste 0.2 -- -- 88
2019-04-07 05:00:00 4.6 13 Noroeste 30 Noroeste 0.4 -- -- 91
2019-04-07 04:00:00 4.6 12 Noroeste 30 Noroeste 0 -- -- 91
2019-04-07 03:00:00 4.6 10 Noroeste 28 Norte 0.2 -- -- 91
2019-04-07 02:00:00 4.5 10 Noroeste 30 Noroeste 0.4 -- -- 91
2019-04-07 01:00:00 4.4 13 Noroeste 30 Noroeste 1.6 -- -- 91
2019-04-07 00:00:00 4.7 10 Noroeste 31 Noroeste 0.8 -- -- 90
2019-04-06 23:00:00 5.6 12 Noroeste 28 Norte 0 -- -- 83
2019-04-06 22:00:00 5.8 7 Noroeste 29 Oeste 0 -- -- 80
2019-04-06 21:00:00 5.7 9 Norte 27 Norte 0 -- -- 83
2019-04-06 20:00:00 5.8 11 Norte 39 Noroeste 0 -- -- 80
2019-04-06 19:00:00 5.4 15 Norte 40 Noroeste 0.4 -- -- 82
2019-04-06 18:00:00 7.6 14 Oeste 37 Noroeste 0 -- -- 72
2019-04-06 17:00:00 9 9 Noroeste 35 Noroeste 0 -- -- 64
2019-04-06 16:00:00 8 14 Noroeste 38 Oeste 0 -- -- 70
2019-04-06 15:00:00 8 22 Noroeste 45 Noroeste 0 -- -- 72
2019-04-06 14:00:00 6.8 19 Noroeste 46 Noroeste 0 -- -- 74
2019-04-06 13:00:00 7 14 Noroeste 37 Norte 0.2 -- -- 82
2019-04-06 12:00:00 5.6 5 Noroeste 43 Noroeste 0 -- -- 85
2019-04-06 11:00:00 5.2 14 Noroeste 33 Noroeste 0.2 -- -- 89
2019-04-06 10:00:00 4.5 11 Noroeste 42 Noroeste 0.6 -- -- 91
2019-04-06 09:00:00 4.1 16 Noroeste 38 Oeste 2 -- -- 86
2019-04-06 08:00:00 3.9 2 Oeste 20 Norte 0.4 -- -- 92
2019-04-06 07:00:00 3.9 10 Noroeste 30 Noroeste 0 -- -- 91
2019-04-06 06:00:00 3.6 8 Norte 27 Noroeste 0 -- -- 92
2019-04-06 05:00:00 3.3 12 Norte 30 Norte 0 -- -- 86
2019-04-06 04:00:00 3.4 8 Norte 21 Norte 0 -- -- 83
2019-04-06 03:00:00 3.4 9 Noroeste 28 Noroeste 0 -- -- 86
2019-04-06 02:00:00 3.5 3 Sudeste 16 Norte 0 -- -- 86
2019-04-06 01:00:00 3.5 5 Noroeste 28 Noroeste 0 -- -- 84
2019-04-06 00:00:00 3.6 13 Norte 31 Noroeste 0 -- -- 87
2019-04-05 23:00:00 3.6 6 Norte 27 Norte 1.2 -- -- 89
2019-04-05 22:00:00 3.6 10 Norte 31 Noroeste 4.4 -- -- 91
2019-04-05 21:00:00 5.4 6 Oeste 23 Oeste 0.4 -- -- 83
2019-04-05 20:00:00 6.1 7 Noroeste 33 Oeste 0 -- -- 77
2019-04-05 19:00:00 7.3 9 Oeste 31 Noroeste 0 -- -- 68
2019-04-05 18:00:00 7.8 11 Noroeste 28 Noroeste 0 -- -- 67
2019-04-05 17:00:00 7.4 15 Norte 46 Norte 0 -- -- 69
2019-04-05 16:00:00 7.7 9 Noroeste 38 Noroeste 0.4 -- -- 68
2019-04-05 15:00:00 7.6 14 Noroeste 29 Noroeste 0.2 -- -- 72
2019-04-05 14:00:00 8.2 12 Noroeste 33 Noroeste 0 -- -- 75
2019-04-05 13:00:00 6.7 11 Noroeste 30 Noroeste 0 -- -- 78
2019-04-05 12:00:00 5.1 16 Noroeste 40 Noroeste 0.2 -- -- 87
2019-04-05 11:00:00 5.2 6 Norte 16 Noroeste 1.4 -- -- 91
2019-04-05 10:00:00 5.3 5 Sur 10 Sur 1 -- -- 99
2019-04-05 09:00:00 4.9 2 Sur 5 Sur 0.2 -- -- 99
2019-04-05 08:00:00 4.5 0 Calma 6 Sur 1.2 -- -- 99
2019-04-05 07:00:00 4.5 3 Sur 10 Oeste 3 -- -- 98
2019-04-05 06:00:00 4.2 0 Calma 6 Noroeste 1.8 -- -- 98
2019-04-05 05:00:00 3.9 0 Calma 6 Noroeste 2.2 -- -- 97
2019-04-05 04:00:00 3.5 4 Norte 11 Noroeste 3 -- -- 95
2019-04-05 03:00:00 4.5 0 Calma 6 Nordeste 2.6 -- -- 96
2019-04-05 02:00:00 4.6 0 Calma 7 Nordeste 1.8 -- -- 94
2019-04-05 01:00:00 4.6 3 Nordeste 9 Nordeste 1 -- -- 93
2019-04-05 00:00:00 4.6 8 Norte 17 Nordeste 1.4 -- -- 91
2019-04-04 23:00:00 5.2 6 Noroeste 31 Noroeste 1.6 -- -- 86
2019-04-04 22:00:00 7.5 17 Noroeste 32 Noroeste 0 -- -- 73
2019-04-04 21:00:00 10.3 5 Noroeste 18 Noroeste 0 -- -- 37
2019-04-04 20:00:00 11.1 7 Noroeste 23 Noroeste 0 -- -- 33
2019-04-04 19:00:00 12.3 5 Oeste 19 Sudoeste 0 -- -- 34
2019-04-04 18:00:00 13.7 6 Oeste 26 Sur 0 -- -- 32
2019-04-04 17:00:00 14.4 12 Sur 25 Sur 0 -- -- 33
2019-04-04 16:00:00 13.4 14 Sur 31 Sur 0 -- -- 31
2019-04-04 15:00:00 12.9 11 Sudeste 31 Sudeste 0 -- -- 32
2019-04-04 14:00:00 12.1 16 Sur 29 Sudeste 0 -- -- 38
2019-04-04 13:00:00 11.6 11 Sudeste 20 Sur 0 -- -- 39
2019-04-04 12:00:00 10 6 Sudeste 16 Sudeste 0 -- -- 42
2019-04-04 11:00:00 8.6 8 Sudeste 14 Sudeste 0 -- -- 44
2019-04-04 10:00:00 7.3 8 Sur 15 Sur 0 -- -- 46
2019-04-04 09:00:00 5.6 0 Calma 12 Oeste 0 -- -- 52
2019-04-04 08:00:00 3.6 6 Oeste 12 Noroeste 0 -- -- 52
2019-04-04 07:00:00 2.8 6 Noroeste 15 Noroeste 0 -- -- 47
2019-04-04 06:00:00 4.4 6 Sudoeste 14 Norte 0 -- -- 41
2019-04-04 05:00:00 5.4 5 Norte 27 Norte 0 -- -- 35
2019-04-04 04:00:00 6.8 19 Norte 53 Norte 0 -- -- 36
2019-04-04 03:00:00 6.3 32 Norte 52 Norte 0 -- -- 43
2019-04-04 02:00:00 6.1 29 Norte 46 Noroeste 0 -- -- 46
2019-04-04 01:00:00 6.4 33 Norte 51 Norte 0 -- -- 44
2019-04-04 00:00:00 7.3 33 Norte 49 Norte 0 -- -- 47
2019-04-03 23:00:00 8.2 31 Norte 54 Norte 0 -- -- 44
2019-04-03 22:00:00 8.8 20 Norte 40 Nordeste 0 -- -- 43
2019-04-03 21:00:00 9.6 14 Norte 42 Noroeste 0 -- -- 40
2019-04-03 20:00:00 10.9 9 Norte 49 Norte 0 -- -- 38
2019-04-03 19:00:00 12.7 9 Nordeste 46 Noroeste 0 -- -- 34
2019-04-03 18:00:00 13.5 25 Norte 55 Norte 0 -- -- 33
2019-04-03 17:00:00 14.6 14 Norte 53 Noroeste 0 -- -- 33
2019-04-03 16:00:00 15 12 Norte 45 Norte 0 -- -- 34
2019-04-03 15:00:00 15.2 17 Noroeste 39 Noroeste 0 -- -- 28
2019-04-03 14:00:00 15 10 Norte 39 Norte 0 -- -- 33
2019-04-03 13:00:00 15.2 21 Norte 36 Norte 0 -- -- 42
2019-04-03 12:00:00 15.4 8 Nordeste 30 Noroeste 0 -- -- 36
2019-04-03 11:00:00 13.5 14 Norte 32 Noroeste 0 -- -- 43
2019-04-03 10:00:00 12.5 17 Norte 29 Noroeste 0 -- -- 48
2019-04-03 09:00:00 11.1 11 Norte 26 Norte 0 -- -- 51
2019-04-03 08:00:00 9.4 14 Noroeste 28 Noroeste 0 -- -- 56
2019-04-03 07:00:00 8.6 0 Calma 21 Noroeste 0 -- -- 62
2019-04-03 06:00:00 10.3 16 Noroeste 28 Noroeste 0 -- -- 58
2019-04-03 05:00:00 10.2 14 Noroeste 23 Noroeste 0 -- -- 54
2019-04-03 04:00:00 11.2 16 Noroeste 26 Noroeste 0 -- -- 55
2019-04-03 03:00:00 11.8 17 Noroeste 29 Norte 0 -- -- 53
2019-04-03 02:00:00 12.4 17 Norte 34 Noroeste 0 -- -- 51
2019-04-03 01:00:00 12.9 23 Noroeste 38 Norte 0 -- -- 49
2019-04-03 00:00:00 13.2 19 Norte 35 Noroeste 0 -- -- 53
2019-04-02 23:00:00 12.8 8 Norte 23 Norte 0 -- -- 60
2019-04-02 22:00:00 13.3 3 Norte 15 Norte 0 -- -- 57
2019-04-02 21:00:00 14.7 7 Noroeste 28 Noroeste 0 -- -- 54
2019-04-02 20:00:00 15.7 5 Noroeste 26 Noroeste 0 -- -- 49
2019-04-02 19:00:00 17.4 12 Noroeste 28 Noroeste 0 -- -- 42
2019-04-02 18:00:00 18.7 12 Noroeste 27 Noroeste 0 -- -- 43
2019-04-02 17:00:00 19.6 9 Noroeste 24 Noroeste 0 -- -- 40
2019-04-02 16:00:00 19.1 10 Noroeste 24 Noroeste 0 -- -- 38
2019-04-02 15:00:00 17.2 5 Este 14 Este 0 -- -- 49
2019-04-02 14:00:00 15.4 6 Sur 23 Sudeste 0 -- -- 58
2019-04-02 13:00:00 16.6 10 Sudeste 21 Sudeste 0 -- -- 67
2019-04-02 12:00:00 14.9 8 Sur 17 Sur 0 -- -- 67
2019-04-02 11:00:00 13.4 6 Sudeste 14 Sur 0 -- -- 69
2019-04-02 10:00:00 11.9 4 Sudeste 8 Sudeste 0 -- -- 74
2019-04-02 09:00:00 9.3 0 Calma 5 Sudoeste 0 -- -- 81
2019-04-02 08:00:00 8.4 4 Sudoeste 8 Sudoeste 0 -- -- 82
2019-04-02 07:00:00 9.4 2 Oeste 10 Noroeste 0 -- -- 82
2019-04-02 06:00:00 10.5 3 Noroeste 18 Noroeste 0 -- -- 73
2019-04-02 05:00:00 10.2 3 Norte 8 Noroeste 0 -- -- 73
2019-04-02 04:00:00 10.4 3 Sudoeste 7 Noroeste 0 -- -- 72
2019-04-02 03:00:00 10.4 0 Calma 6 Oeste 0 -- -- 73
2019-04-02 02:00:00 11.1 3 Noroeste 14 Noroeste 0 -- -- 69
2019-04-02 01:00:00 11 6 Noroeste 13 Noroeste 0 -- -- 71
2019-04-02 00:00:00 11.5 8 Noroeste 13 Noroeste 0 -- -- 67
2019-04-01 23:00:00 11.3 8 Noroeste 17 Noroeste 0 -- -- 69
2019-04-01 22:00:00 11.5 12 Noroeste 23 Noroeste 0 -- -- 65
2019-04-01 21:00:00 12.8 13 Noroeste 22 Noroeste 0 -- -- 64
2019-04-01 20:00:00 14 4 Sudoeste 16 Sur 0 -- -- 65
2019-04-01 19:00:00 15.3 4 Sur 9 Sur 0 -- -- 59
2019-04-01 18:00:00 15.2 3 Noroeste 11 Sur 0 -- -- 56
2019-04-01 17:00:00 15.5 6 Sudeste 12 Sudeste 0 -- -- 54
2019-04-01 16:00:00 14.3 4 Sudeste 8 Este 0 -- -- 58
2019-04-01 15:00:00 12.9 3 Sur 11 Sur 0 -- -- 68
2019-04-01 14:00:00 12.5 4 Sudeste 12 Sur 0 -- -- 70
2019-04-01 13:00:00 12.7 4 Sur 19 Sur 0 -- -- 71
2019-04-01 12:00:00 12.5 3 Sudeste 12 Sudeste 0 -- -- 72
2019-04-01 11:00:00 11.1 5 Sur 12 Sur 0 -- -- 78
2019-04-01 10:00:00 11 7 Sur 12 Sur 0 -- -- 79
2019-04-01 09:00:00 9.5 3 Este 10 Norte 0 -- -- 82
2019-04-01 08:00:00 8.7 0 Calma 4 Noroeste 0 -- -- 86
2019-04-01 07:00:00 9 3 Sudoeste 8 Sudeste 0 -- -- 85
2019-04-01 06:00:00 8.6 0 Calma 6 Sur 0 -- -- 85
2019-04-01 05:00:00 8.5 0 Calma 6 Sur 0 -- -- 83
2019-04-01 04:00:00 9.4 4 Sudoeste 9 Sudoeste 0 -- -- 80
2019-04-01 03:00:00 9.9 4 Sur 12 Sur 0 -- -- 77
2019-04-01 02:00:00 10.4 9 Sudeste 17 Sudeste 0 -- -- 75
2019-04-01 01:00:00 10.7 4 Sudoeste 17 Sudoeste 0 -- -- 72
2019-04-01 00:00:00 10.8 5 Sudoeste 11 Sudoeste 0 -- -- 73
2019-03-31 23:00:00 10.9 4 Sur 12 Sudeste 0 -- -- 71
2019-03-31 22:00:00 11.3 4 Sudeste 15 Sudeste 0 -- -- 70
2019-03-31 21:00:00 11.8 10 Sudeste 22 Sudeste 0 -- -- 69
2019-03-31 20:00:00 13.2 8 Sudeste 26 Sur 0 -- -- 63
2019-03-31 19:00:00 14.6 11 Sur 26 Sur 0 -- -- 57
2019-03-31 18:00:00 15.1 7 Sudeste 21 Sur 0 -- -- 57
2019-03-31 17:00:00 13.1 10 Noroeste 18 Norte 0.2 -- -- 76
2019-03-31 16:00:00 14.5 13 Norte 23 Sur 0 -- -- 55
2019-03-31 15:00:00 17.3 7 Sur 25 Sur 0 -- -- 46
2019-03-31 14:00:00 16.4 8 Sudeste 26 Sudeste 0 -- -- 48
2019-03-31 13:00:00 15 10 Sur 23 Sur 0 -- -- 53
2019-03-31 12:00:00 13.4 8 Sur 15 Sur 0 -- -- 59
2019-03-31 11:00:00 11.8 10 Sur 18 Sur 0 -- -- 63
2019-03-31 10:00:00 11.1 4 Sur 13 Sur 0 -- -- 63
2019-03-31 09:00:00 10.2 3 Sur 10 Oeste 0 -- -- 67
2019-03-31 08:00:00 9.3 3 Sudoeste 13 Oeste 0 -- -- 68
2019-03-31 07:00:00 9.7 3 Sur 15 Sur 0 -- -- 65
2019-03-31 06:00:00 9.9 4 Oeste 18 Sudoeste 0 -- -- 61
2019-03-31 05:00:00 11.3 2 Norte 9 Noroeste 0 -- -- 48
2019-03-31 03:00:00 11.9 7 Sudoeste 13 Sur 0 -- -- 43
2019-03-31 01:00:00 12.6 5 Oeste 13 Noroeste 0 -- -- 38
2019-03-31 00:00:00 11.9 10 Noroeste 14 Noroeste 0 -- -- 45
2019-03-30 23:00:00 12.9 3 Oeste 13 Noroeste 0 -- -- 42
2019-03-30 22:00:00 12.5 10 Noroeste 18 Noroeste 0 -- -- 49
2019-03-30 21:00:00 12.5 11 Noroeste 18 Noroeste 0 -- -- 49
2019-03-30 20:00:00 13.6 8 Noroeste 13 Noroeste 0 -- -- 46
2019-03-30 19:00:00 15.6 4 Sur 18 Sudeste 0 -- -- 41
2019-03-30 18:00:00 16.7 9 Sur 19 Sur 0 -- -- 41
2019-03-30 17:00:00 16.9 9 Sur 25 Sur 0 -- -- 39
2019-03-30 16:00:00 17.6 14 Sur 25 Sur 0 -- -- 38
2019-03-30 15:00:00 17.3 12 Sudeste 27 Sudeste 0 -- -- 37
2019-03-30 14:00:00 16.4 13 Sudeste 26 Sudeste 0 -- -- 39
2019-03-30 13:00:00 15.9 13 Sur 21 Sur 0 -- -- 42
2019-03-30 12:00:00 14.3 7 Sur 17 Sudeste 0 -- -- 48
2019-03-30 11:00:00 12.9 5 Sur 19 Sudeste 0 -- -- 50
2019-03-30 10:00:00 11.6 11 Sur 19 Sudeste 0 -- -- 52
2019-03-30 09:00:00 10.2 6 Sur 12 Sur 0 -- -- 56
2019-03-30 08:00:00 6.9 0 Calma 8 Sudoeste 0 -- -- 66
2019-03-30 07:00:00 6.2 3 Sudeste 8 Sudoeste 0 -- -- 68
2019-03-30 06:00:00 5.9 2 Sur 10 Oeste 0 -- -- 70
2019-03-30 05:00:00 7.2 7 Sudoeste 12 Sudoeste 0 -- -- 65
2019-03-30 04:00:00 7.9 0 Calma 14 Sur 0 -- -- 55
2019-03-30 03:00:00 9.7 2 Sur 10 Noroeste 0 -- -- 46
2019-03-30 02:00:00 10.4 0 Calma 8 Sudoeste 0 -- -- 43
2019-03-30 01:00:00 11.4 4 Sudoeste 8 Noroeste 0 -- -- 38
2019-03-30 00:00:00 12.1 3 Oeste 10 Noroeste 0 -- -- 34
2019-03-29 23:00:00 12.2 4 Noroeste 10 Noroeste 0 -- -- 33
2019-03-29 22:00:00 12.5 3 Noroeste 11 Norte 0 -- -- 33
2019-03-29 21:00:00 11.4 6 Noroeste 11 Noroeste 0 -- -- 35
2019-03-29 20:00:00 12.4 4 Noroeste 13 Sudoeste 0 -- -- 34
2019-03-29 19:00:00 14.1 7 Sur 27 Sur 0 -- -- 31
2019-03-29 18:00:00 16.3 14 Sur 25 Sur 0 -- -- 28
2019-03-29 17:00:00 17.2 15 Sur 33 Sudeste 0 -- -- 28
2019-03-29 16:00:00 17.4 18 Sur 33 Sur 0 -- -- 28
2019-03-29 15:00:00 16.9 15 Sudeste 37 Sur 0 -- -- 29
2019-03-29 14:00:00 16.7 17 Sudeste 32 Sudeste 0 -- -- 30
2019-03-29 13:00:00 16.3 14 Sudeste 35 Sudeste 0 -- -- 31
2019-03-29 12:00:00 15.3 17 Sur 33 Sudeste 0 -- -- 29
2019-03-29 11:00:00 13.1 14 Sur 25 Sur 0 -- -- 37
2019-03-29 10:00:00 11.5 10 Sudoeste 19 Sur 0 -- -- 39
2019-03-29 09:00:00 10.4 7 Sur 21 Sur 0 -- -- 38
2019-03-29 08:00:00 8.5 8 Sur 18 Sudoeste 0 -- -- 43
2019-03-29 07:00:00 7.1 2 Noroeste 19 Sudoeste 0 -- -- 44
2019-03-29 06:00:00 9.4 10 Sudoeste 18 Sudoeste 0 -- -- 37
2019-03-29 05:00:00 10.5 6 Sudoeste 13 Sudoeste 0 -- -- 34
2019-03-29 04:00:00 10.4 8 Sudoeste 14 Sudoeste 0 -- -- 33
2019-03-29 03:00:00 11.2 3 Sudoeste 9 Sudeste 0 -- -- 31
2019-03-29 02:00:00 12.3 7 Sudeste 16 Este 0 -- -- 29
2019-03-29 01:00:00 12.8 4 Nordeste 11 Nordeste 0 -- -- 28
2019-03-29 00:00:00 13.1 5 Nordeste 13 Nordeste 0 -- -- 27
2019-03-28 23:00:00 13.5 8 Nordeste 15 Norte 0 -- -- 27
2019-03-28 22:00:00 13.4 4 Nordeste 14 Nordeste 0 -- -- 28
2019-03-28 21:00:00 13.5 3 Nordeste 10 Norte 0 -- -- 28
2019-03-28 20:00:00 13.6 4 Norte 15 Sudeste 0 -- -- 30
2019-03-28 19:00:00 15.5 6 Sur 21 Sur 0 -- -- 28
2019-03-28 18:00:00 17.4 10 Sur 24 Sur 0 -- -- 24
2019-03-28 17:00:00 18.5 13 Sur 26 Este 0 -- -- 25
2019-03-28 16:00:00 18.5 12 Sudeste 27 Sur 0 -- -- 24
2019-03-28 15:00:00 18.2 15 Sudeste 32 Sudeste 0 -- -- 24
2019-03-28 14:00:00 17.4 11 Sudeste 26 Sur 0 -- -- 24
2019-03-28 13:00:00 17 11 Sur 22 Sur 0 -- -- 30
2019-03-28 12:00:00 16.1 12 Sur 19 Sudeste 0 -- -- 32
2019-03-28 11:00:00 15.2 12 Sur 20 Sur 0 -- -- 31
2019-03-28 10:00:00 13.7 5 Sudeste 13 Norte 0 -- -- 34
2019-03-28 09:00:00 11.5 4 Sudeste 9 Sudeste 0 -- -- 38
2019-03-28 08:00:00 8.5 2 Este 12 Sudoeste 0 -- -- 43
2019-03-28 07:00:00 8.1 7 Sudoeste 10 Sudoeste 0 -- -- 41
2019-03-28 06:00:00 8.8 4 Sudoeste 8 Oeste 0 -- -- 41
2019-03-28 05:00:00 9.9 4 Oeste 9 Oeste 0 -- -- 36
2019-03-28 04:00:00 10 0 Calma 16 Noroeste 0 -- -- 42
2019-03-28 03:00:00 11.2 0 Calma 6 Oeste 0 -- -- 40
2019-03-28 02:00:00 11.7 0 Calma 12 Noroeste 0 -- -- 39
2019-03-28 01:00:00 11.8 9 Noroeste 18 Noroeste 0 -- -- 35
2019-03-28 00:00:00 11.1 10 Noroeste 15 Oeste 0 -- -- 41
2019-03-27 23:00:00 11.3 6 Noroeste 17 Noroeste 0 -- -- 45
2019-03-27 22:00:00 11.8 8 Noroeste 14 Noroeste 0 -- -- 45
2019-03-27 21:00:00 11.4 11 Noroeste 15 Noroeste 0 -- -- 46
2019-03-27 20:00:00 11.9 8 Noroeste 12 Noroeste 0 -- -- 45
2019-03-27 19:00:00 13.4 3 Sudoeste 15 Sudeste 0 -- -- 43
2019-03-27 18:00:00 16.7 6 Sur 18 Sudeste 0 -- -- 36
2019-03-27 17:00:00 17.4 8 Sur 20 Sur 0 -- -- 34
2019-03-27 16:00:00 17.4 9 Sur 23 Sudeste 0 -- -- 33
2019-03-27 15:00:00 17.1 9 Sur 21 Sur 0 -- -- 33
2019-03-27 14:00:00 16.2 10 Sur 24 Sudeste 0 -- -- 36
2019-03-27 13:00:00 15.1 8 Sur 26 Sudeste 0 -- -- 39
2019-03-27 12:00:00 14.5 12 Sur 21 Sudeste 0 -- -- 42
2019-03-27 11:00:00 13.1 9 Sudeste 23 Sudeste 0 -- -- 42
2019-03-27 10:00:00 12.1 13 Sudeste 24 Sur 0 -- -- 45
2019-03-27 09:00:00 10.2 4 Sur 15 Sur 0 -- -- 48
2019-03-27 08:00:00 8.1 6 Sur 14 Sudoeste 0 -- -- 54
2019-03-27 07:00:00 7.4 6 Sur 27 Sur 0 -- -- 57
2019-03-27 06:00:00 9 12 Sur 26 Sur 0 -- -- 50
2019-03-27 05:00:00 10.1 7 Sudoeste 23 Sur 0 -- -- 45
2019-03-27 04:00:00 11 12 Sudoeste 28 Sur 0 -- -- 42
2019-03-27 03:00:00 12.5 8 Sur 28 Sur 0 -- -- 35
2019-03-27 02:00:00 13.3 9 Sur 31 Sur 0 -- -- 32
2019-03-27 01:00:00 14.6 15 Sur 42 Sur 0 -- -- 27
2019-03-27 00:00:00 15.2 13 Sur 41 Sur 0 -- -- 24
2019-03-26 23:00:00 15.8 21 Sur 44 Sur 0 -- -- 25
2019-03-26 22:00:00 16.3 5 Este 20 Este 0 -- -- 27
2019-03-26 21:00:00 15.9 5 Norte 13 Nordeste 0 -- -- 29
2019-03-26 20:00:00 16.8 5 Este 22 Nordeste 0 -- -- 29
2019-03-26 19:00:00 17.7 10 Sudeste 25 Sudeste 0 -- -- 29
2019-03-26 18:00:00 19 12 Sudeste 30 Sudeste 0 -- -- 27
2019-03-26 17:00:00 19.8 14 Sudeste 31 Sur 0 -- -- 26
2019-03-26 16:00:00 19.9 14 Sudeste 34 Sudeste 0 -- -- 27
2019-03-26 15:00:00 19.4 17 Sudeste 35 Sudeste 0 -- -- 29
2019-03-26 14:00:00 18.4 21 Sudeste 35 Sudeste 0 -- -- 31
2019-03-26 13:00:00 17.3 11 Sudeste 27 Sur 0 -- -- 37
2019-03-26 12:00:00 14.7 6 Sur 18 Sur 0 -- -- 39
2019-03-26 11:00:00 13.6 11 Sudeste 19 Sur 0 -- -- 40
2019-03-26 10:00:00 12.3 6 Sur 14 Sur 0 -- -- 42
2019-03-26 09:00:00 9.5 4 Sudeste 9 Sudeste 0 -- -- 49
2019-03-26 08:00:00 6.7 4 Nordeste 12 Sudoeste 0 -- -- 55
2019-03-26 07:00:00 6.2 3 Oeste 15 Noroeste 0 -- -- 55
2019-03-26 06:00:00 6 3 Sudoeste 15 Sudoeste 0 -- -- 53
2019-03-26 05:00:00 7.6 5 Sur 14 Sur 0 -- -- 48
2019-03-26 04:00:00 8.3 4 Sudoeste 15 Sudoeste 0 -- -- 48
2019-03-26 03:00:00 9.4 7 Sudoeste 13 Sudoeste 0 -- -- 47
2019-03-26 02:00:00 11.2 3 Sur 13 Noroeste 0 -- -- 45
2019-03-26 01:00:00 12.2 4 Oeste 12 Sudeste 0 -- -- 42
2019-03-26 00:00:00 14.8 5 Noroeste 9 Noroeste 0 -- -- 35
2019-03-25 23:00:00 15 4 Norte 14 Noroeste 0 -- -- 32
2019-03-25 22:00:00 15.7 4 Noroeste 15 Noroeste 0 -- -- 30
2019-03-25 21:00:00 15.3 6 Noroeste 18 Norte 0 -- -- 34
2019-03-25 20:00:00 16 10 Norte 21 Norte 0 -- -- 32
2019-03-25 19:00:00 16.8 9 Noroeste 13 Noroeste 0 -- -- 39
2019-03-25 18:00:00 20.1 4 Sudoeste 15 Sur 0 -- -- 32
2019-03-25 17:00:00 20.8 8 Sur 17 Sur 0 -- -- 30
2019-03-25 16:00:00 20.7 11 Sur 23 Sudeste 0 -- -- 28
2019-03-25 15:00:00 20.6 9 Sur 21 Sur 0 -- -- 29
2019-03-25 14:00:00 20.1 10 Sudeste 22 Sur 0 -- -- 28
2019-03-25 13:00:00 19.1 7 Sur 19 Sudeste 0 -- -- 30
2019-03-25 12:00:00 18.7 10 Sur 19 Sur 0 -- -- 31
2019-03-25 11:00:00 17.9 7 Sudeste 19 Sur 0 -- -- 34
2019-03-25 10:00:00 16.5 4 Sur 11 Sur 0 -- -- 37
2019-03-25 09:00:00 14.7 3 Sudeste 8 Sudeste 0 -- -- 42
2019-03-25 08:00:00 10.7 0 Calma 11 Norte 0 -- -- 54
2019-03-25 07:00:00 9.9 3 Sudoeste 11 Sudoeste 0 -- -- 52
2019-03-25 06:00:00 11.8 3 Sudoeste 14 Norte 0 -- -- 46
2019-03-25 05:00:00 10.7 3 Noroeste 13 Norte 0 -- -- 49
2019-03-25 04:00:00 11.9 11 Sudoeste 15 Sudoeste 0 -- -- 46
2019-03-25 03:00:00 13.7 5 Noroeste 12 Noroeste 0 -- -- 40
2019-03-25 02:00:00 14.4 3 Noroeste 9 Norte 0 -- -- 38
2019-03-25 01:00:00 15 3 Noroeste 9 Noroeste 0 -- -- 37
2019-03-25 00:00:00 15.1 3 Norte 12 Norte 0 -- -- 36
2019-03-24 23:00:00 15.2 5 Norte 12 Sudeste 0 -- -- 36
2019-03-24 22:00:00 15.3 3 Nordeste 12 Norte 0 -- -- 35
2019-03-24 21:00:00 15.7 4 Nordeste 11 Norte 0 -- -- 34
2019-03-24 20:00:00 15.8 3 Norte 13 Sur 0 -- -- 35
2019-03-24 19:00:00 17.4 8 Sudeste 28 Sur 0 -- -- 34
2019-03-24 18:00:00 18.6 14 Sur 31 Sur 0 -- -- 32
2019-03-24 17:00:00 19.4 15 Sudeste 36 Sur 0 -- -- 31
2019-03-24 16:00:00 19.3 17 Sudeste 46 Sudeste 0 -- -- 33
2019-03-24 15:00:00 18.9 19 Sudeste 42 Sudeste 0 -- -- 33
2019-03-24 14:00:00 18.3 28 Sudeste 52 Sur 0 -- -- 32
2019-03-24 13:00:00 17.9 23 Sudeste 49 Sudeste 0 -- -- 36
2019-03-24 12:00:00 17 26 Sur 52 Sur 0 -- -- 38
2019-03-24 11:00:00 16.3 23 Sudeste 40 Sur 0 -- -- 40
2019-03-24 10:00:00 15.2 18 Sudeste 35 Sudeste 0 -- -- 41
2019-03-24 09:00:00 13.7 15 Sudeste 28 Sudeste 0 -- -- 42
2019-03-24 08:00:00 11.3 5 Sur 27 Sudoeste 0 -- -- 51
2019-03-24 07:00:00 11 9 Sur 33 Sudeste 0 -- -- 52
2019-03-24 06:00:00 11.6 10 Sur 25 Sur 0 -- -- 49
2019-03-24 05:00:00 12.3 8 Sur 27 Sudeste 0 -- -- 46
2019-03-24 04:00:00 12.6 8 Sur 30 Sur 0 -- -- 46
2019-03-24 03:00:00 13.3 9 Sudeste 37 Sudeste 0 -- -- 45
2019-03-24 02:00:00 13.4 25 Sudeste 38 Sudeste 0 -- -- 48
2019-03-24 01:00:00 13.9 22 Sudeste 40 Sudeste 0 -- -- 48
2019-03-24 00:00:00 14.2 12 Sudeste 23 Sudeste 0 -- -- 45
2019-03-23 23:00:00 14.7 11 Sudeste 27 Sur 0 -- -- 43
2019-03-23 22:00:00 15.1 12 Sur 29 Sudeste 0 -- -- 41
2019-03-23 21:00:00 15.9 7 Sur 27 Sur 0 -- -- 39
2019-03-23 20:00:00 16.3 6 Sudeste 35 Sudeste 0 -- -- 38
2019-03-23 19:00:00 17.1 17 Sudeste 36 Sudeste 0 -- -- 35
2019-03-23 18:00:00 18 18 Sudeste 38 Sur 0 -- -- 33
2019-03-23 17:00:00 18.7 17 Sudeste 34 Sur 0 -- -- 35
2019-03-23 16:00:00 18.7 21 Sudeste 36 Sudeste 0 -- -- 35
2019-03-23 15:00:00 18.7 16 Sudeste 38 Sudeste 0 -- -- 36
2019-03-23 14:00:00 18.5 13 Sudeste 32 Sur 0 -- -- 40
2019-03-23 13:00:00 17.8 15 Sur 25 Sudeste 0 -- -- 42
2019-03-23 12:00:00 16.5 13 Sudeste 25 Sur 0 -- -- 46
2019-03-23 11:00:00 14.7 12 Sur 21 Sur 0 -- -- 48
2019-03-23 10:00:00 13.4 8 Sur 17 Sur 0 -- -- 52
2019-03-23 09:00:00 12.7 4 Sudeste 13 Sudoeste 0 -- -- 52
2019-03-23 08:00:00 9.9 4 Oeste 11 Sudoeste 0 -- -- 61
2019-03-23 07:00:00 8.4 3 Norte 12 Sudoeste 0 -- -- 61
2019-03-23 06:00:00 9.2 6 Sudoeste 10 Sudoeste 0 -- -- 58
2019-03-23 05:00:00 10.2 5 Sudoeste 14 Sur 0 -- -- 54
2019-03-23 04:00:00 9.8 5 Sur 10 Sur 0 -- -- 53
2019-03-23 03:00:00 11.2 5 Sudoeste 18 Sudoeste 0 -- -- 47
2019-03-23 02:00:00 12 5 Sudoeste 19 Sudeste 0 -- -- 44
2019-03-23 01:00:00 10.6 15 Sur 27 Sur 0 -- -- 46
2019-03-23 00:00:00 13.2 4 Este 12 Nordeste 0 -- -- 37
2019-03-22 23:00:00 12.7 4 Norte 13 Noroeste 0 -- -- 37
2019-03-22 22:00:00 11.4 11 Noroeste 15 Noroeste 0 -- -- 42
2019-03-22 21:00:00 11.2 10 Noroeste 15 Noroeste 0 -- -- 45
2019-03-22 20:00:00 11.6 9 Noroeste 12 Noroeste 0 -- -- 45
2019-03-22 19:00:00 13.8 4 Sudeste 19 Sudeste 0 -- -- 41
2019-03-22 18:00:00 15.7 10 Sur 17 Sur 0 -- -- 38
2019-03-22 17:00:00 16.5 9 Sur 23 Sur 0 -- -- 37
2019-03-22 16:00:00 16.3 6 Sur 27 Sudeste 0 -- -- 37
2019-03-22 15:00:00 15.9 13 Sur 25 Sur 0 -- -- 36
2019-03-22 14:00:00 15.5 11 Sur 22 Sur 0 -- -- 35
2019-03-22 13:00:00 14.8 10 Sur 20 Sudeste 0 -- -- 36
2019-03-22 12:00:00 13.6 8 Sur 17 Sur 0 -- -- 38
2019-03-22 11:00:00 11.9 8 Sudeste 16 Sudeste 0 -- -- 39
2019-03-22 10:00:00 10.3 7 Sudeste 14 Sudeste 0 -- -- 43
2019-03-22 09:00:00 8.7 8 Sur 14 Sur 0 -- -- 44
2019-03-22 08:00:00 6.1 0 Calma 9 Noroeste 0 -- -- 53
2019-03-22 07:00:00 6 4 Sudoeste 15 Sudoeste 0 -- -- 50
2019-03-22 06:00:00 7.2 3 Sur 9 Noroeste 0 -- -- 46
2019-03-22 05:00:00 7.7 2 Norte 14 Noroeste 0 -- -- 43
2019-03-22 04:00:00 7.1 9 Noroeste 14 Noroeste 0 -- -- 46
2019-03-22 03:00:00 8.6 6 Noroeste 13 Noroeste 0 -- -- 40
2019-03-22 02:00:00 8.7 8 Noroeste 14 Noroeste 0 -- -- 40
2019-03-22 01:00:00 9 8 Noroeste 13 Noroeste 0 -- -- 39
2019-03-22 00:00:00 9.5 9 Noroeste 14 Noroeste 0 -- -- 36
2019-03-21 23:00:00 10.1 6 Noroeste 12 Noroeste 0 -- -- 36
2019-03-21 22:00:00 10.8 3 Noroeste 13 Noroeste 0 -- -- 38
2019-03-21 21:00:00 10.7 4 Norte 9 Noroeste 0 -- -- 41
2019-03-21 20:00:00 11.6 0 Calma 14 Sur 0 -- -- 40
2019-03-21 19:00:00 13.1 8 Sur 15 Sur 0 -- -- 38
2019-03-21 18:00:00 14.2 12 Sur 19 Sur 0 -- -- 39
2019-03-21 17:00:00 15.3 9 Sur 22 Sur 0 -- -- 37
2019-03-21 16:00:00 15.4 6 Sur 23 Sudeste 0 -- -- 37
2019-03-21 15:00:00 14.7 9 Sudeste 24 Sur 0 -- -- 36
2019-03-21 14:00:00 14.3 10 Sur 27 Sur 0 -- -- 38
2019-03-21 13:00:00 13.5 7 Sudeste 24 Sudeste 0 -- -- 39
2019-03-21 12:00:00 12.7 14 Sudeste 26 Sudeste 0 -- -- 39
2019-03-21 11:00:00 11.6 6 Este 25 Sudeste 0 -- -- 42
2019-03-21 10:00:00 10.3 9 Sudeste 21 Sudeste 0 -- -- 46
2019-03-21 09:00:00 8.8 4 Sudeste 9 Sur 0 -- -- 50
2019-03-21 08:00:00 4.6 0 Calma 8 Sudoeste 0 -- -- 62
2019-03-21 07:00:00 4.3 4 Oeste 13 Sudoeste 0 -- -- 61
2019-03-21 06:00:00 5.6 5 Sudoeste 10 Sudoeste 0 -- -- 52
2019-03-21 05:00:00 5.9 4 Noroeste 11 Sudoeste 0 -- -- 51
2019-03-21 04:00:00 6.6 4 Sudoeste 22 Sudoeste 0 -- -- 52
2019-03-21 03:00:00 8.3 5 Noroeste 12 Norte 0 -- -- 43
2019-03-21 02:00:00 8.1 5 Noroeste 12 Noroeste 0 -- -- 43
2019-03-21 01:00:00 8 5 Norte 11 Norte 0 -- -- 43
2019-03-21 00:00:00 8.5 6 Noroeste 14 Noroeste 0 -- -- 44
2019-03-20 23:00:00 8.5 7 Noroeste 13 Noroeste 0 -- -- 46
2019-03-20 22:00:00 8.7 6 Noroeste 14 Noroeste 0 -- -- 48
2019-03-20 21:00:00 8.8 10 Noroeste 15 Noroeste 0 -- -- 49
2019-03-20 20:00:00 9.4 8 Noroeste 11 Noroeste 0 -- -- 48
2019-03-20 19:00:00 10.9 5 Sudoeste 14 Sur 0 -- -- 46
2019-03-20 18:00:00 13.7 4 Sur 16 Sur 0 -- -- 39
2019-03-20 17:00:00 14.2 6 Sudeste 19 Sur 0 -- -- 39
2019-03-20 16:00:00 14 9 Sur 26 Sudeste 0 -- -- 41
2019-03-20 15:00:00 13.1 10 Sudeste 22 Sudeste 0 -- -- 44
2019-03-20 14:00:00 12.9 13 Sudeste 25 Sudeste 0 -- -- 45
2019-03-20 13:00:00 11.7 9 Sudeste 22 Sudeste 0 -- -- 48
2019-03-20 12:00:00 11.4 10 Sudeste 26 Sudeste 0 -- -- 47
2019-03-20 11:00:00 9.8 7 Sudeste 22 Sudeste 0 -- -- 50
2019-03-20 10:00:00 8.8 12 Sudeste 21 Sudeste 0 -- -- 54
2019-03-20 09:00:00 7.1 2 Nordeste 8 Oeste 0 -- -- 60
2019-03-20 08:00:00 4.1 3 Sudoeste 8 Sur 0 -- -- 68
2019-03-20 07:00:00 4 0 Calma 12 Sur 0 -- -- 66
2019-03-20 06:00:00 5 6 Sudoeste 13 Sur 0 -- -- 62
2019-03-20 05:00:00 5.2 5 Noroeste 14 Noroeste 0 -- -- 57
2019-03-20 04:00:00 5.2 10 Noroeste 16 Noroeste 0 -- -- 59
2019-03-20 03:00:00 6.4 3 Oeste 10 Noroeste 0 -- -- 57
2019-03-20 02:00:00 7.8 6 Sudoeste 13 Oeste 0 -- -- 48
2019-03-20 01:00:00 8.5 11 Noroeste 16 Noroeste 0 -- -- 38
2019-03-20 00:00:00 9 9 Noroeste 19 Noroeste 0 -- -- 39
2019-03-19 23:00:00 9.6 6 Noroeste 13 Oeste 0 -- -- 40
2019-03-19 22:00:00 10.2 6 Noroeste 18 Norte 0 -- -- 40
2019-03-19 21:00:00 11 10 Norte 24 Norte 0 -- -- 42
2019-03-19 20:00:00 11.6 11 Norte 32 Nordeste 0 -- -- 41
2019-03-19 19:00:00 12.4 6 Oeste 12 Noroeste 0 -- -- 48
2019-03-19 18:00:00 14.4 5 Sur 13 Sudeste 0 -- -- 45
2019-03-19 17:00:00 15.8 9 Sur 16 Sur 0 -- -- 40
2019-03-19 16:00:00 15.8 5 Sudoeste 22 Sur 0 -- -- 41
2019-03-19 15:00:00 15.2 12 Sudeste 20 Sur 0 -- -- 42
2019-03-19 14:00:00 14.6 10 Sudeste 24 Sur 0 -- -- 42
2019-03-19 13:00:00 13.9 11 Sudeste 22 Sur 0 -- -- 43
2019-03-19 12:00:00 12.9 9 Sur 17 Sudeste 0 -- -- 43
2019-03-19 11:00:00 11.1 6 Sudeste 17 Sur 0 -- -- 46
2019-03-19 10:00:00 9.9 7 Sudeste 12 Sudeste 0 -- -- 49
2019-03-19 09:00:00 8.5 5 Sudeste 10 Sudeste 0 -- -- 51
2019-03-19 08:00:00 5 0 Calma 8 Oeste 0 -- -- 59
2019-03-19 07:00:00 5.6 3 Sudoeste 5 Oeste 0 -- -- 56
2019-03-19 06:00:00 5.9 3 Sur 10 Sudoeste 0 -- -- 56
2019-03-19 05:00:00 6.5 2 Sudoeste 7 Este 0 -- -- 52
2019-03-19 04:00:00 6.9 0 Calma 13 Sudoeste 0 -- -- 53
2019-03-19 03:00:00 8.1 2 Oeste 9 Noroeste 0 -- -- 51
2019-03-19 02:00:00 8.3 0 Calma 12 Sudoeste 0 -- -- 50
2019-03-19 01:00:00 9.4 5 Noroeste 16 Noroeste 0 -- -- 49
2019-03-19 00:00:00 9.5 4 Noroeste 15 Noroeste 0 -- -- 47